sensor_id;sensor_type;location;lat;lon;timestamp;temperature;humidity
9219;DHT22;4644;48.858;9.184;2023-09-08T00:00:52;17.00;99.90
9219;DHT22;4644;48.858;9.184;2023-09-08T00:03:19;17.00;99.90
9219;DHT22;4644;48.858;9.184;2023-09-08T00:05:47;17.00;99.90
9219;DHT22;4644;48.858;9.184;2023-09-08T00:08:14;16.90;99.90
9219;DHT22;4644;48.858;9.184;2023-09-08T00:10:41;16.90;99.90
9219;DHT22;4644;48.858;9.184;2023-09-08T00:13:08;16.90;99.90
9219;DHT22;4644;48.858;9.184;2023-09-08T00:15:37;16.90;99.90
9219;DHT22;4644;48.858;9.184;2023-09-08T00:18:04;16.80;99.90
9219;DHT22;4644;48.858;9.184;2023-09-08T00:20:31;16.80;99.90
9219;DHT22;4644;48.858;9.184;2023-09-08T00:22:58;16.80;99.90
9219;DHT22;4644;48.858;9.184;2023-09-08T00:25:25;16.70;99.90
9219;DHT22;4644;48.858;9.184;2023-09-08T00:27:52;16.70;99.90
9219;DHT22;4644;48.858;9.184;2023-09-08T00:30:19;16.60;99.90
9219;DHT22;4644;48.858;9.184;2023-09-08T00:32:47;16.70;99.90
9219;DHT22;4644;48.858;9.184;2023-09-08T00:35:14;16.70;99.90
9219;DHT22;4644;48.858;9.184;2023-09-08T00:37:41;16.70;99.90
9219;DHT22;4644;48.858;9.184;2023-09-08T00:40:09;16.60;99.90
9219;DHT22;4644;48.858;9.184;2023-09-08T00:42:36;16.60;99.90
9219;DHT22;4644;48.858;9.184;2023-09-08T00:45:04;16.60;99.90
9219;DHT22;4644;48.858;9.184;2023-09-08T00:47:32;16.60;99.90
9219;DHT22;4644;48.858;9.184;2023-09-08T00:50:01;16.50;99.90
9219;DHT22;4644;48.858;9.184;2023-09-08T00:52:28;16.60;99.90
9219;DHT22;4644;48.858;9.184;2023-09-08T00:54:58;16.50;99.90
9219;DHT22;4644;48.858;9.184;2023-09-08T00:57:25;16.40;99.90
9219;DHT22;4644;48.858;9.184;2023-09-08T00:59:53;16.40;99.90
9219;DHT22;4644;48.858;9.184;2023-09-08T01:02:21;16.40;99.90
9219;DHT22;4644;48.858;9.184;2023-09-08T01:04:49;16.30;99.90
9219;DHT22;4644;48.858;9.184;2023-09-08T01:07:19;16.40;99.90
9219;DHT22;4644;48.858;9.184;2023-09-08T01:09:47;16.40;99.90
9219;DHT22;4644;48.858;9.184;2023-09-08T01:12:15;16.30;99.90
9219;DHT22;4644;48.858;9.184;2023-09-08T01:14:42;16.30;99.90
9219;DHT22;4644;48.858;9.184;2023-09-08T01:17:09;16.30;99.90
9219;DHT22;4644;48.858;9.184;2023-09-08T01:19:38;16.30;99.90
9219;DHT22;4644;48.858;9.184;2023-09-08T01:25:14;16.20;99.90
9219;DHT22;4644;48.858;9.184;2023-09-08T01:27:46;16.10;99.90
9219;DHT22;4644;48.858;9.184;2023-09-08T01:30:14;16.20;99.90
9219;DHT22;4644;48.858;9.184;2023-09-08T01:32:42;16.20;99.90
9219;DHT22;4644;48.858;9.184;2023-09-08T01:35:11;16.20;99.90
9219;DHT22;4644;48.858;9.184;2023-09-08T01:37:40;16.30;99.90
9219;DHT22;4644;48.858;9.184;2023-09-08T01:40:08;16.30;99.90
9219;DHT22;4644;48.858;9.184;2023-09-08T01:42:37;16.30;99.90
9219;DHT22;4644;48.858;9.184;2023-09-08T01:45:05;16.30;99.90
9219;DHT22;4644;48.858;9.184;2023-09-08T01:47:33;16.30;99.90
9219;DHT22;4644;48.858;9.184;2023-09-08T01:50:00;16.30;99.90
9219;DHT22;4644;48.858;9.184;2023-09-08T01:52:27;16.30;99.90
9219;DHT22;4644;48.858;9.184;2023-09-08T01:54:54;16.30;99.90
9219;DHT22;4644;48.858;9.184;2023-09-08T01:57:21;16.30;99.90
9219;DHT22;4644;48.858;9.184;2023-09-08T01:59:49;16.30;99.90
9219;DHT22;4644;48.858;9.184;2023-09-08T02:02:16;16.30;99.90
9219;DHT22;4644;48.858;9.184;2023-09-08T02:04:43;16.30;99.90
9219;DHT22;4644;48.858;9.184;2023-09-08T02:07:10;16.30;99.90
9219;DHT22;4644;48.858;9.184;2023-09-08T02:09:38;16.30;99.90
9219;DHT22;4644;48.858;9.184;2023-09-08T02:12:05;16.30;99.90
9219;DHT22;4644;48.858;9.184;2023-09-08T02:14:32;16.30;99.90
9219;DHT22;4644;48.858;9.184;2023-09-08T02:17:01;16.20;99.90
9219;DHT22;4644;48.858;9.184;2023-09-08T02:19:28;16.10;99.90
9219;DHT22;4644;48.858;9.184;2023-09-08T02:21:55;16.10;99.90
9219;DHT22;4644;48.858;9.184;2023-09-08T02:24:22;16.00;99.90
9219;DHT22;4644;48.858;9.184;2023-09-08T02:26:49;16.00;99.90
9219;DHT22;4644;48.858;9.184;2023-09-08T02:29:16;15.90;99.90
9219;DHT22;4644;48.858;9.184;2023-09-08T02:31:44;16.00;99.90
9219;DHT22;4644;48.858;9.184;2023-09-08T02:34:12;15.90;99.90
9219;DHT22;4644;48.858;9.184;2023-09-08T02:36:39;15.90;99.90
9219;DHT22;4644;48.858;9.184;2023-09-08T02:39:06;15.90;99.90
9219;DHT22;4644;48.858;9.184;2023-09-08T02:41:33;15.90;99.90
9219;DHT22;4644;48.858;9.184;2023-09-08T02:44:00;15.90;99.90
9219;DHT22;4644;48.858;9.184;2023-09-08T02:46:27;15.90;99.90
9219;DHT22;4644;48.858;9.184;2023-09-08T02:48:54;15.90;99.90
9219;DHT22;4644;48.858;9.184;2023-09-08T02:51:22;15.90;99.90
9219;DHT22;4644;48.858;9.184;2023-09-08T02:53:49;15.90;99.90
9219;DHT22;4644;48.858;9.184;2023-09-08T02:56:16;15.80;99.90
9219;DHT22;4644;48.858;9.184;2023-09-08T02:58:43;15.80;99.90
9219;DHT22;4644;48.858;9.184;2023-09-08T03:01:12;15.80;99.90
9219;DHT22;4644;48.858;9.184;2023-09-08T03:03:40;15.80;99.90
9219;DHT22;4644;48.858;9.184;2023-09-08T03:06:08;15.70;99.90
9219;DHT22;4644;48.858;9.184;2023-09-08T03:08:36;15.70;99.90
9219;DHT22;4644;48.858;9.184;2023-09-08T03:11:04;15.70;99.90
9219;DHT22;4644;48.858;9.184;2023-09-08T03:13:32;15.70;99.90
9219;DHT22;4644;48.858;9.184;2023-09-08T03:16:02;15.70;99.90
9219;DHT22;4644;48.858;9.184;2023-09-08T03:18:30;15.70;99.90
9219;DHT22;4644;48.858;9.184;2023-09-08T03:20:58;15.70;99.90
9219;DHT22;4644;48.858;9.184;2023-09-08T03:23:26;15.70;99.90
9219;DHT22;4644;48.858;9.184;2023-09-08T03:25:54;15.70;99.90
9219;DHT22;4644;48.858;9.184;2023-09-08T03:28:21;15.70;99.90
9219;DHT22;4644;48.858;9.184;2023-09-08T03:30:48;15.70;99.90
9219;DHT22;4644;48.858;9.184;2023-09-08T03:33:15;15.70;99.90
9219;DHT22;4644;48.858;9.184;2023-09-08T03:35:42;15.60;99.90
9219;DHT22;4644;48.858;9.184;2023-09-08T03:38:09;15.60;99.90
9219;DHT22;4644;48.858;9.184;2023-09-08T03:40:36;15.60;99.90
9219;DHT22;4644;48.858;9.184;2023-09-08T03:43:05;15.50;99.90
9219;DHT22;4644;48.858;9.184;2023-09-08T03:45:33;15.50;99.90
9219;DHT22;4644;48.858;9.184;2023-09-08T03:48:00;15.50;99.90
9219;DHT22;4644;48.858;9.184;2023-09-08T03:50:27;15.40;99.90
9219;DHT22;4644;48.858;9.184;2023-09-08T03:52:54;15.40;99.90
9219;DHT22;4644;48.858;9.184;2023-09-08T03:55:21;15.40;99.90
9219;DHT22;4644;48.858;9.184;2023-09-08T03:57:48;15.40;99.90
9219;DHT22;4644;48.858;9.184;2023-09-08T04:00:16;15.40;99.90
9219;DHT22;4644;48.858;9.184;2023-09-08T04:02:46;15.40;99.90
9219;DHT22;4644;48.858;9.184;2023-09-08T04:05:13;15.40;99.90
9219;DHT22;4644;48.858;9.184;2023-09-08T04:07:40;15.40;99.90
9219;DHT22;4644;48.858;9.184;2023-09-08T04:10:08;15.40;99.90
9219;DHT22;4644;48.858;9.184;2023-09-08T04:12:35;15.40;99.90
9219;DHT22;4644;48.858;9.184;2023-09-08T04:15:03;15.40;99.90
9219;DHT22;4644;48.858;9.184;2023-09-08T04:17:33;15.30;99.90
9219;DHT22;4644;48.858;9.184;2023-09-08T04:20:01;15.30;99.90
9219;DHT22;4644;48.858;9.184;2023-09-08T04:22:30;15.30;99.90
9219;DHT22;4644;48.858;9.184;2023-09-08T04:24:57;15.20;99.90
9219;DHT22;4644;48.858;9.184;2023-09-08T04:27:24;15.20;99.90
9219;DHT22;4644;48.858;9.184;2023-09-08T04:29:51;15.20;99.90
9219;DHT22;4644;48.858;9.184;2023-09-08T04:32:18;15.20;99.90
9219;DHT22;4644;48.858;9.184;2023-09-08T04:34:46;15.10;99.90
9219;DHT22;4644;48.858;9.184;2023-09-08T04:37:14;15.20;99.90
9219;DHT22;4644;48.858;9.184;2023-09-08T04:39:41;15.20;99.90
9219;DHT22;4644;48.858;9.184;2023-09-08T04:42:09;15.20;99.90
9219;DHT22;4644;48.858;9.184;2023-09-08T04:44:36;15.20;99.90
9219;DHT22;4644;48.858;9.184;2023-09-08T04:47:04;15.10;99.90
9219;DHT22;4644;48.858;9.184;2023-09-08T04:49:31;15.10;99.90
9219;DHT22;4644;48.858;9.184;2023-09-08T04:52:00;15.20;99.90
9219;DHT22;4644;48.858;9.184;2023-09-08T04:54:27;15.10;99.90
9219;DHT22;4644;48.858;9.184;2023-09-08T04:56:54;15.20;99.90
9219;DHT22;4644;48.858;9.184;2023-09-08T04:59:21;15.20;99.90
9219;DHT22;4644;48.858;9.184;2023-09-08T05:01:49;15.20;99.90
9219;DHT22;4644;48.858;9.184;2023-09-08T05:04:17;15.20;99.90
9219;DHT22;4644;48.858;9.184;2023-09-08T05:06:45;15.20;99.90
9219;DHT22;4644;48.858;9.184;2023-09-08T05:09:17;15.20;99.90
9219;DHT22;4644;48.858;9.184;2023-09-08T05:11:44;15.20;99.90
9219;DHT22;4644;48.858;9.184;2023-09-08T05:14:11;15.20;99.90
9219;DHT22;4644;48.858;9.184;2023-09-08T05:16:38;15.20;99.90
9219;DHT22;4644;48.858;9.184;2023-09-08T05:19:11;15.30;99.90
9219;DHT22;4644;48.858;9.184;2023-09-08T05:21:39;15.20;99.90
9219;DHT22;4644;48.858;9.184;2023-09-08T05:24:07;15.20;99.90
9219;DHT22;4644;48.858;9.184;2023-09-08T05:26:37;15.20;99.90
9219;DHT22;4644;48.858;9.184;2023-09-08T05:29:05;15.30;99.90
9219;DHT22;4644;48.858;9.184;2023-09-08T05:31:32;15.30;99.90
9219;DHT22;4644;48.858;9.184;2023-09-08T05:33:59;15.30;99.90
9219;DHT22;4644;48.858;9.184;2023-09-08T05:36:26;15.30;99.90
9219;DHT22;4644;48.858;9.184;2023-09-08T05:38:55;15.30;99.90
9219;DHT22;4644;48.858;9.184;2023-09-08T05:41:22;15.40;99.90
9219;DHT22;4644;48.858;9.184;2023-09-08T05:43:51;15.40;99.90
9219;DHT22;4644;48.858;9.184;2023-09-08T05:46:17;15.40;99.90
9219;DHT22;4644;48.858;9.184;2023-09-08T05:48:45;15.50;99.90
9219;DHT22;4644;48.858;9.184;2023-09-08T05:51:13;15.60;99.90
9219;DHT22;4644;48.858;9.184;2023-09-08T05:53:39;15.70;99.90
9219;DHT22;4644;48.858;9.184;2023-09-08T05:56:08;15.70;99.90
9219;DHT22;4644;48.858;9.184;2023-09-08T05:58:35;15.80;99.90
9219;DHT22;4644;48.858;9.184;2023-09-08T06:01:04;16.00;99.90
9219;DHT22;4644;48.858;9.184;2023-09-08T06:03:31;16.10;99.90
9219;DHT22;4644;48.858;9.184;2023-09-08T06:05:58;16.20;99.90
9219;DHT22;4644;48.858;9.184;2023-09-08T06:08:25;16.20;99.90
9219;DHT22;4644;48.858;9.184;2023-09-08T06:10:52;16.30;99.90
9219;DHT22;4644;48.858;9.184;2023-09-08T06:13:19;16.40;99.90
9219;DHT22;4644;48.858;9.184;2023-09-08T06:15:46;16.40;99.90
9219;DHT22;4644;48.858;9.184;2023-09-08T06:18:14;16.40;99.90
9219;DHT22;4644;48.858;9.184;2023-09-08T06:20:45;16.50;99.90
9219;DHT22;4644;48.858;9.184;2023-09-08T06:23:12;16.60;99.90
9219;DHT22;4644;48.858;9.184;2023-09-08T06:25:40;16.60;99.90
9219;DHT22;4644;48.858;9.184;2023-09-08T06:28:07;16.70;99.90
9219;DHT22;4644;48.858;9.184;2023-09-08T06:30:34;16.80;99.90
9219;DHT22;4644;48.858;9.184;2023-09-08T06:33:02;16.90;99.90
9219;DHT22;4644;48.858;9.184;2023-09-08T06:35:31;17.00;99.90
9219;DHT22;4644;48.858;9.184;2023-09-08T06:37:59;17.00;99.90
9219;DHT22;4644;48.858;9.184;2023-09-08T06:40:28;17.10;99.90
9219;DHT22;4644;48.858;9.184;2023-09-08T06:42:55;17.20;99.90
9219;DHT22;4644;48.858;9.184;2023-09-08T06:45:23;17.20;99.90
9219;DHT22;4644;48.858;9.184;2023-09-08T06:47:50;17.40;99.90
9219;DHT22;4644;48.858;9.184;2023-09-08T06:50:20;17.50;99.90
9219;DHT22;4644;48.858;9.184;2023-09-08T06:52:49;17.70;99.90
9219;DHT22;4644;48.858;9.184;2023-09-08T06:55:16;18.10;99.90
9219;DHT22;4644;48.858;9.184;2023-09-08T06:57:43;18.40;99.90
9219;DHT22;4644;48.858;9.184;2023-09-08T07:00:11;18.90;99.90
9219;DHT22;4644;48.858;9.184;2023-09-08T07:02:38;19.30;99.90
9219;DHT22;4644;48.858;9.184;2023-09-08T07:05:06;19.70;99.90
9219;DHT22;4644;48.858;9.184;2023-09-08T07:07:34;19.90;99.90
9219;DHT22;4644;48.858;9.184;2023-09-08T07:10:02;20.00;99.90
9219;DHT22;4644;48.858;9.184;2023-09-08T07:12:30;20.30;99.90
9219;DHT22;4644;48.858;9.184;2023-09-08T07:14:57;20.40;99.90
9219;DHT22;4644;48.858;9.184;2023-09-08T07:17:24;20.90;99.90
9219;DHT22;4644;48.858;9.184;2023-09-08T07:19:51;21.00;99.90
9219;DHT22;4644;48.858;9.184;2023-09-08T07:22:19;21.20;99.90
9219;DHT22;4644;48.858;9.184;2023-09-08T07:24:46;21.50;99.90
9219;DHT22;4644;48.858;9.184;2023-09-08T07:27:14;21.80;99.90
9219;DHT22;4644;48.858;9.184;2023-09-08T07:29:41;22.00;99.90
9219;DHT22;4644;48.858;9.184;2023-09-08T07:32:08;22.10;99.90
9219;DHT22;4644;48.858;9.184;2023-09-08T07:34:35;22.40;99.90
9219;DHT22;4644;48.858;9.184;2023-09-08T07:37:02;22.70;99.90
9219;DHT22;4644;48.858;9.184;2023-09-08T07:39:29;23.00;99.90
9219;DHT22;4644;48.858;9.184;2023-09-08T07:41:58;22.90;99.90
9219;DHT22;4644;48.858;9.184;2023-09-08T07:44:26;23.00;99.90
9219;DHT22;4644;48.858;9.184;2023-09-08T07:46:54;23.30;99.90
9219;DHT22;4644;48.858;9.184;2023-09-08T07:49:22;23.70;99.90
9219;DHT22;4644;48.858;9.184;2023-09-08T07:51:49;23.90;99.90
9219;DHT22;4644;48.858;9.184;2023-09-08T07:54:16;24.10;99.90
9219;DHT22;4644;48.858;9.184;2023-09-08T07:56:43;24.20;99.90
9219;DHT22;4644;48.858;9.184;2023-09-08T07:59:10;24.30;99.90
9219;DHT22;4644;48.858;9.184;2023-09-08T08:01:39;24.40;99.90
9219;DHT22;4644;48.858;9.184;2023-09-08T08:04:06;24.80;99.90
9219;DHT22;4644;48.858;9.184;2023-09-08T08:06:33;24.60;99.90
9219;DHT22;4644;48.858;9.184;2023-09-08T08:09:00;24.80;99.90
9219;DHT22;4644;48.858;9.184;2023-09-08T08:11:28;25.00;99.90
9219;DHT22;4644;48.858;9.184;2023-09-08T08:13:55;25.20;99.90
9219;DHT22;4644;48.858;9.184;2023-09-08T08:16:22;25.30;99.90
9219;DHT22;4644;48.858;9.184;2023-09-08T08:18:51;25.60;99.90
9219;DHT22;4644;48.858;9.184;2023-09-08T08:21:18;25.70;99.90
9219;DHT22;4644;48.858;9.184;2023-09-08T08:23:46;26.00;99.90
9219;DHT22;4644;48.858;9.184;2023-09-08T08:26:13;26.00;99.90
9219;DHT22;4644;48.858;9.184;2023-09-08T08:28:40;26.00;99.90
9219;DHT22;4644;48.858;9.184;2023-09-08T08:31:07;26.10;99.90
9219;DHT22;4644;48.858;9.184;2023-09-08T08:33:34;26.00;99.90
9219;DHT22;4644;48.858;9.184;2023-09-08T08:36:03;26.20;99.90
9219;DHT22;4644;48.858;9.184;2023-09-08T08:38:30;26.30;99.90
9219;DHT22;4644;48.858;9.184;2023-09-08T08:41:02;26.60;99.90
9219;DHT22;4644;48.858;9.184;2023-09-08T08:43:31;26.90;99.90
9219;DHT22;4644;48.858;9.184;2023-09-08T08:45:58;27.20;99.90
9219;DHT22;4644;48.858;9.184;2023-09-08T08:48:27;27.20;99.90
9219;DHT22;4644;48.858;9.184;2023-09-08T08:50:57;27.30;99.90
9219;DHT22;4644;48.858;9.184;2023-09-08T08:53:25;27.30;99.90
9219;DHT22;4644;48.858;9.184;2023-09-08T08:55:56;27.30;99.90
9219;DHT22;4644;48.858;9.184;2023-09-08T08:58:25;27.30;99.90
9219;DHT22;4644;48.858;9.184;2023-09-08T09:00:53;27.20;99.90
9219;DHT22;4644;48.858;9.184;2023-09-08T09:03:24;27.00;99.90
9219;DHT22;4644;48.858;9.184;2023-09-08T09:05:53;27.20;99.90
9219;DHT22;4644;48.858;9.184;2023-09-08T09:08:21;27.60;99.90
9219;DHT22;4644;48.858;9.184;2023-09-08T09:10:50;27.60;99.90
9219;DHT22;4644;48.858;9.184;2023-09-08T09:13:18;27.40;99.90
9219;DHT22;4644;48.858;9.184;2023-09-08T09:15:45;27.30;99.90
9219;DHT22;4644;48.858;9.184;2023-09-08T09:18:12;26.80;99.90
9219;DHT22;4644;48.858;9.184;2023-09-08T09:20:40;26.90;99.90
9219;DHT22;4644;48.858;9.184;2023-09-08T09:23:07;27.20;99.90
9219;DHT22;4644;48.858;9.184;2023-09-08T09:25:36;27.30;99.90
9219;DHT22;4644;48.858;9.184;2023-09-08T09:28:05;27.60;99.90
9219;DHT22;4644;48.858;9.184;2023-09-08T09:30:48;27.40;99.90
9219;DHT22;4644;48.858;9.184;2023-09-08T09:33:17;27.70;99.90
9219;DHT22;4644;48.858;9.184;2023-09-08T09:35:48;27.70;99.90
9219;DHT22;4644;48.858;9.184;2023-09-08T09:38:16;27.90;99.90
9219;DHT22;4644;48.858;9.184;2023-09-08T09:40:44;28.20;99.90
9219;DHT22;4644;48.858;9.184;2023-09-08T09:43:14;28.20;99.90
9219;DHT22;4644;48.858;9.184;2023-09-08T09:45:42;28.40;99.30
9219;DHT22;4644;48.858;9.184;2023-09-08T09:48:10;28.40;99.70
9219;DHT22;4644;48.858;9.184;2023-09-08T09:50:38;28.60;99.50
9219;DHT22;4644;48.858;9.184;2023-09-08T09:53:09;28.40;99.20
9219;DHT22;4644;48.858;9.184;2023-09-08T09:55:38;28.40;97.80
9219;DHT22;4644;48.858;9.184;2023-09-08T09:58:06;28.50;99.90
9219;DHT22;4644;48.858;9.184;2023-09-08T10:00:35;28.70;98.90
9219;DHT22;4644;48.858;9.184;2023-09-08T10:03:04;28.90;99.90
9219;DHT22;4644;48.858;9.184;2023-09-08T10:05:31;29.20;99.60
9219;DHT22;4644;48.858;9.184;2023-09-08T10:07:58;29.40;97.70
9219;DHT22;4644;48.858;9.184;2023-09-08T10:10:27;28.80;95.80
9219;DHT22;4644;48.858;9.184;2023-09-08T10:13:04;28.40;97.90
9219;DHT22;4644;48.858;9.184;2023-09-08T10:15:33;28.20;97.90
9219;DHT22;4644;48.858;9.184;2023-09-08T10:18:04;28.30;99.90
9219;DHT22;4644;48.858;9.184;2023-09-08T10:20:33;28.40;98.00
9219;DHT22;4644;48.858;9.184;2023-09-08T10:23:04;28.70;99.90
9219;DHT22;4644;48.858;9.184;2023-09-08T10:28:55;28.90;99.60
9219;DHT22;4644;48.858;9.184;2023-09-08T10:31:26;29.10;99.10
9219;DHT22;4644;48.858;9.184;2023-09-08T10:33:54;29.20;97.70
9219;DHT22;4644;48.858;9.184;2023-09-08T10:36:23;29.00;98.70
9219;DHT22;4644;48.858;9.184;2023-09-08T10:38:50;28.90;97.50
9219;DHT22;4644;48.858;9.184;2023-09-08T10:41:27;28.90;97.10
9219;DHT22;4644;48.858;9.184;2023-09-08T10:44:01;28.90;95.90
9219;DHT22;4644;48.858;9.184;2023-09-08T10:46:31;29.00;95.60
9219;DHT22;4644;48.858;9.184;2023-09-08T10:49:03;28.70;97.20
9219;DHT22;4644;48.858;9.184;2023-09-08T10:51:30;29.00;97.60
9219;DHT22;4644;48.858;9.184;2023-09-08T10:53:58;29.00;97.50
9219;DHT22;4644;48.858;9.184;2023-09-08T10:56:31;29.00;96.30
9219;DHT22;4644;48.858;9.184;2023-09-08T10:59:14;29.10;97.20
9219;DHT22;4644;48.858;9.184;2023-09-08T11:01:43;29.20;96.20
9219;DHT22;4644;48.858;9.184;2023-09-08T11:04:12;28.80;95.20
9219;DHT22;4644;48.858;9.184;2023-09-08T11:06:40;28.70;97.40
9219;DHT22;4644;48.858;9.184;2023-09-08T11:09:07;28.70;96.70
9219;DHT22;4644;48.858;9.184;2023-09-08T11:11:35;28.90;97.60
9219;DHT22;4644;48.858;9.184;2023-09-08T11:14:03;29.20;97.30
9219;DHT22;4644;48.858;9.184;2023-09-08T11:16:30;29.00;97.10
9219;DHT22;4644;48.858;9.184;2023-09-08T11:19:00;29.20;97.20
9219;DHT22;4644;48.858;9.184;2023-09-08T11:21:30;29.10;95.40
9219;DHT22;4644;48.858;9.184;2023-09-08T11:24:01;29.10;94.10
9219;DHT22;4644;48.858;9.184;2023-09-08T11:26:32;29.00;94.70
9219;DHT22;4644;48.858;9.184;2023-09-08T11:29:00;29.00;96.70
9219;DHT22;4644;48.858;9.184;2023-09-08T11:31:27;28.60;94.30
9219;DHT22;4644;48.858;9.184;2023-09-08T11:33:55;28.00;96.00
9219;DHT22;4644;48.858;9.184;2023-09-08T11:36:24;27.70;97.00
9219;DHT22;4644;48.858;9.184;2023-09-08T11:38:52;27.80;98.10
9219;DHT22;4644;48.858;9.184;2023-09-08T11:41:19;27.90;98.80
9219;DHT22;4644;48.858;9.184;2023-09-08T11:43:49;28.40;98.50
9219;DHT22;4644;48.858;9.184;2023-09-08T11:46:17;28.60;96.60
9219;DHT22;4644;48.858;9.184;2023-09-08T11:48:45;28.60;98.20
9219;DHT22;4644;48.858;9.184;2023-09-08T11:51:12;28.80;96.70
9219;DHT22;4644;48.858;9.184;2023-09-08T11:53:41;28.80;96.40
9219;DHT22;4644;48.858;9.184;2023-09-08T11:56:09;28.80;97.50
9219;DHT22;4644;48.858;9.184;2023-09-08T11:58:37;28.70;95.90
9219;DHT22;4644;48.858;9.184;2023-09-08T12:01:04;28.70;98.70
9219;DHT22;4644;48.858;9.184;2023-09-08T12:03:31;28.80;95.30
9219;DHT22;4644;48.858;9.184;2023-09-08T12:05:59;28.50;95.10
9219;DHT22;4644;48.858;9.184;2023-09-08T12:08:27;28.40;95.90
9219;DHT22;4644;48.858;9.184;2023-09-08T12:10:56;28.50;96.50
9219;DHT22;4644;48.858;9.184;2023-09-08T12:13:23;28.50;94.40
9219;DHT22;4644;48.858;9.184;2023-09-08T12:15:51;28.20;94.30
9219;DHT22;4644;48.858;9.184;2023-09-08T12:18:18;28.00;95.10
9219;DHT22;4644;48.858;9.184;2023-09-08T12:20:46;27.80;95.00
9219;DHT22;4644;48.858;9.184;2023-09-08T12:23:17;27.70;96.10
9219;DHT22;4644;48.858;9.184;2023-09-08T12:25:45;27.70;95.40
9219;DHT22;4644;48.858;9.184;2023-09-08T12:28:16;27.80;96.80
9219;DHT22;4644;48.858;9.184;2023-09-08T12:30:44;27.90;96.70
9219;DHT22;4644;48.858;9.184;2023-09-08T12:33:11;28.00;96.00
9219;DHT22;4644;48.858;9.184;2023-09-08T12:35:42;28.00;96.00
9219;DHT22;4644;48.858;9.184;2023-09-08T12:38:10;28.00;96.10
9219;DHT22;4644;48.858;9.184;2023-09-08T12:40:37;28.20;95.60
9219;DHT22;4644;48.858;9.184;2023-09-08T12:43:05;28.20;96.60
9219;DHT22;4644;48.858;9.184;2023-09-08T12:45:34;28.20;94.80
9219;DHT22;4644;48.858;9.184;2023-09-08T12:48:02;28.20;95.30
9219;DHT22;4644;48.858;9.184;2023-09-08T12:50:29;28.20;95.10
9219;DHT22;4644;48.858;9.184;2023-09-08T12:52:57;28.10;93.90
9219;DHT22;4644;48.858;9.184;2023-09-08T12:55:24;28.00;94.90
9219;DHT22;4644;48.858;9.184;2023-09-08T12:57:51;27.90;93.40
9219;DHT22;4644;48.858;9.184;2023-09-08T13:00:21;27.90;94.40
9219;DHT22;4644;48.858;9.184;2023-09-08T13:02:51;28.00;92.90
9219;DHT22;4644;48.858;9.184;2023-09-08T13:05:19;27.90;94.00
9219;DHT22;4644;48.858;9.184;2023-09-08T13:07:46;27.90;95.40
9219;DHT22;4644;48.858;9.184;2023-09-08T13:10:14;28.00;95.60
9219;DHT22;4644;48.858;9.184;2023-09-08T13:12:41;28.10;94.90
9219;DHT22;4644;48.858;9.184;2023-09-08T13:15:09;28.10;95.00
9219;DHT22;4644;48.858;9.184;2023-09-08T13:17:36;28.10;95.10
9219;DHT22;4644;48.858;9.184;2023-09-08T13:20:06;28.20;94.90
9219;DHT22;4644;48.858;9.184;2023-09-08T13:22:33;28.10;93.90
9219;DHT22;4644;48.858;9.184;2023-09-08T13:25:00;28.10;94.30
9219;DHT22;4644;48.858;9.184;2023-09-08T13:27:27;28.00;93.60
9219;DHT22;4644;48.858;9.184;2023-09-08T13:29:54;28.00;93.30
9219;DHT22;4644;48.858;9.184;2023-09-08T13:32:21;27.90;93.40
9219;DHT22;4644;48.858;9.184;2023-09-08T13:34:54;27.90;96.10
9219;DHT22;4644;48.858;9.184;2023-09-08T13:37:22;28.00;93.60
9219;DHT22;4644;48.858;9.184;2023-09-08T13:39:49;28.00;93.20
9219;DHT22;4644;48.858;9.184;2023-09-08T13:42:16;28.10;93.90
9219;DHT22;4644;48.858;9.184;2023-09-08T13:44:44;28.10;93.40
9219;DHT22;4644;48.858;9.184;2023-09-08T13:47:11;28.00;92.80
9219;DHT22;4644;48.858;9.184;2023-09-08T13:49:38;28.00;95.10
9219;DHT22;4644;48.858;9.184;2023-09-08T13:52:05;28.10;93.80
9219;DHT22;4644;48.858;9.184;2023-09-08T13:54:34;28.10;93.70
9219;DHT22;4644;48.858;9.184;2023-09-08T13:57:02;28.10;94.10
9219;DHT22;4644;48.858;9.184;2023-09-08T13:59:30;28.10;94.30
9219;DHT22;4644;48.858;9.184;2023-09-08T14:01:58;28.00;94.60
9219;DHT22;4644;48.858;9.184;2023-09-08T14:04:27;28.20;94.20
9219;DHT22;4644;48.858;9.184;2023-09-08T14:06:54;28.20;94.40
9219;DHT22;4644;48.858;9.184;2023-09-08T14:09:21;28.30;94.60
9219;DHT22;4644;48.858;9.184;2023-09-08T14:11:50;28.30;93.90
9219;DHT22;4644;48.858;9.184;2023-09-08T14:14:17;28.30;92.20
9219;DHT22;4644;48.858;9.184;2023-09-08T14:16:44;28.10;93.40
9219;DHT22;4644;48.858;9.184;2023-09-08T14:19:11;28.10;92.60
9219;DHT22;4644;48.858;9.184;2023-09-08T14:21:38;28.10;93.00
9219;DHT22;4644;48.858;9.184;2023-09-08T14:24:06;28.00;92.90
9219;DHT22;4644;48.858;9.184;2023-09-08T14:26:33;28.10;92.40
9219;DHT22;4644;48.858;9.184;2023-09-08T14:29:02;28.10;92.30
9219;DHT22;4644;48.858;9.184;2023-09-08T14:31:30;27.90;93.70
9219;DHT22;4644;48.858;9.184;2023-09-08T14:33:57;27.90;93.00
9219;DHT22;4644;48.858;9.184;2023-09-08T14:36:25;27.90;93.90
9219;DHT22;4644;48.858;9.184;2023-09-08T14:38:52;27.90;92.90
9219;DHT22;4644;48.858;9.184;2023-09-08T14:41:20;27.90;92.90
9219;DHT22;4644;48.858;9.184;2023-09-08T14:43:47;28.00;93.40
9219;DHT22;4644;48.858;9.184;2023-09-08T14:46:16;28.00;93.10
9219;DHT22;4644;48.858;9.184;2023-09-08T14:48:43;28.00;93.60
9219;DHT22;4644;48.858;9.184;2023-09-08T14:51:10;28.10;93.00
9219;DHT22;4644;48.858;9.184;2023-09-08T14:53:37;28.20;92.80
9219;DHT22;4644;48.858;9.184;2023-09-08T14:56:04;28.10;93.90
9219;DHT22;4644;48.858;9.184;2023-09-08T14:58:31;28.10;93.60
9219;DHT22;4644;48.858;9.184;2023-09-08T15:01:00;28.00;92.90
9219;DHT22;4644;48.858;9.184;2023-09-08T15:03:34;28.00;93.10
9219;DHT22;4644;48.858;9.184;2023-09-08T15:06:01;28.00;92.70
9219;DHT22;4644;48.858;9.184;2023-09-08T15:08:28;28.00;92.90
9219;DHT22;4644;48.858;9.184;2023-09-08T15:10:56;28.00;93.40
9219;DHT22;4644;48.858;9.184;2023-09-08T15:13:23;28.00;93.70
9219;DHT22;4644;48.858;9.184;2023-09-08T15:15:50;28.00;93.80
9219;DHT22;4644;48.858;9.184;2023-09-08T15:18:17;27.90;93.30
9219;DHT22;4644;48.858;9.184;2023-09-08T15:20:53;27.90;93.20
9219;DHT22;4644;48.858;9.184;2023-09-08T15:23:20;27.90;93.50
9219;DHT22;4644;48.858;9.184;2023-09-08T15:25:52;27.80;93.70
9219;DHT22;4644;48.858;9.184;2023-09-08T15:28:19;27.90;92.90
9219;DHT22;4644;48.858;9.184;2023-09-08T15:30:47;28.00;92.90
9219;DHT22;4644;48.858;9.184;2023-09-08T15:33:14;27.90;95.60
9219;DHT22;4644;48.858;9.184;2023-09-08T15:35:42;27.90;94.20
9219;DHT22;4644;48.858;9.184;2023-09-08T15:38:10;27.80;94.50
9219;DHT22;4644;48.858;9.184;2023-09-08T15:40:38;27.80;94.00
9219;DHT22;4644;48.858;9.184;2023-09-08T15:43:07;27.80;95.80
9219;DHT22;4644;48.858;9.184;2023-09-08T15:45:34;27.70;95.30
9219;DHT22;4644;48.858;9.184;2023-09-08T15:48:01;27.70;97.40
9219;DHT22;4644;48.858;9.184;2023-09-08T15:50:28;27.70;93.30
9219;DHT22;4644;48.858;9.184;2023-09-08T15:52:55;27.70;94.10
9219;DHT22;4644;48.858;9.184;2023-09-08T15:55:23;27.70;92.30
9219;DHT22;4644;48.858;9.184;2023-09-08T15:57:51;27.70;91.30
9219;DHT22;4644;48.858;9.184;2023-09-08T16:00:18;27.60;91.70
9219;DHT22;4644;48.858;9.184;2023-09-08T16:02:46;27.60;94.20
9219;DHT22;4644;48.858;9.184;2023-09-08T16:05:13;27.50;92.80
9219;DHT22;4644;48.858;9.184;2023-09-08T16:07:41;27.50;91.30
9219;DHT22;4644;48.858;9.184;2023-09-08T16:10:08;27.40;94.50
9219;DHT22;4644;48.858;9.184;2023-09-08T16:12:37;27.30;96.00